Time;durP1;ratioP1;P1;durP2;ratioP2;P2;SDS_P1;SDS_P2;PMS_P1;PMS_P2;Temp;Humidity;BMP_temperature;BMP_pressure;BME280_temperature;BME280_humidity;BME280_pressure;Samples;Min_cycle;Max_cycle;Signal;HPM_P1;HPM_P2
2022/08/04 00:00:19;;;;;;;8.50;5.53;;;25.80;1.00;;;;;;5050241;28;20453;-60
2022/08/04 00:03:01;;;;;;;6.03;5.53;;;25.70;1.00;;;;;;5049160;28;20454;-58
2022/08/04 00:05:56;;;;;;;5.80;5.30;;;25.70;1.00;;;;;;5048975;28;20180;-60
2022/08/04 00:08:41;;;;;;;7.60;5.33;;;25.60;1.00;;;;;;5057569;28;20799;-61
2022/08/04 00:11:08;;;;;;;5.70;5.23;;;25.60;1.00;;;;;;5048982;28;20465;-59
2022/08/04 00:13:40;;;;;;;6.00;5.50;;;25.60;1.00;;;;;;5050282;28;22423;-59
2022/08/04 00:16:23;;;;;;;5.67;5.17;;;25.60;1.00;;;;;;5049734;28;20438;-59
2022/08/04 00:18:59;;;;;;;6.20;5.70;;;25.60;1.00;;;;;;5047505;28;20431;-60
2022/08/04 00:21:27;;;;;;;7.50;5.50;;;25.50;1.00;;;;;;5049200;28;20573;-60
2022/08/04 00:23:58;;;;;;;5.90;5.30;;;25.50;1.00;;;;;;5053188;28;20445;-59
2022/08/04 00:26:24;;;;;;;7.80;5.40;;;;;;;;;;5050239;28;20512;-59
2022/08/04 00:28:50;;;;;;;6.67;5.10;;;25.50;1.00;;;;;;5048934;28;20889;-61
2022/08/04 00:31:28;;;;;;;6.10;5.60;;;25.50;1.00;;;;;;5053184;28;20534;-60
2022/08/04 00:33:56;;;;;;;7.00;6.10;;;25.50;1.00;;;;;;5047287;28;20220;-60
2022/08/04 00:36:23;;;;;;;5.80;5.40;;;25.50;1.00;;;;;;5049161;28;20470;-58
2022/08/04 00:38:49;;;;;;;6.17;5.60;;;25.40;1.00;;;;;;5049424;28;20434;-60
2022/08/04 00:41:27;;;;;;;5.80;5.30;;;25.40;1.00;;;;;;5050201;28;20769;-60
2022/08/04 00:44:11;;;;;;;6.23;5.73;;;25.30;1.00;;;;;;5049899;28;21159;-59
2022/08/04 00:46:52;;;;;;;6.03;5.53;;;25.30;1.00;;;;;;5047269;28;20491;-61
2022/08/04 00:49:48;;;;;;;6.43;5.77;;;25.20;1.00;;;;;;5049772;28;20506;-60
2022/08/04 00:52:39;;;;;;;7.63;5.43;;;25.20;1.00;;;;;;5052803;28;20458;-60
2022/08/04 00:55:26;;;;;;;5.80;5.30;;;25.20;1.00;;;;;;5044964;28;20960;-60
2022/08/04 00:58:11;;;;;;;9.83;5.80;;;25.10;1.00;;;;;;5045280;28;20961;-60
2022/08/04 01:00:59;;;;;;;6.20;5.70;;;25.00;1.00;;;;;;5049979;28;21035;-60
2022/08/04 01:03:48;;;;;;;6.60;6.00;;;25.00;1.00;;;;;;5049367;28;20533;-59
2022/08/04 01:06:33;;;;;;;6.03;5.43;;;25.00;1.00;;;;;;5047766;28;20526;-60
2022/08/04 01:09:08;;;;;;;6.70;6.10;;;25.00;1.00;;;;;;5049673;28;20485;-60
2022/08/04 01:11:55;;;;;;;5.90;5.40;;;24.90;1.00;;;;;;5050416;28;20449;-59
2022/08/04 01:14:45;;;;;;;6.70;5.60;;;24.90;1.00;;;;;;5048803;28;20458;-60
2022/08/04 01:17:27;;;;;;;6.03;5.43;;;24.80;1.00;;;;;;5049192;28;20442;-60
2022/08/04 01:19:55;;;;;;;6.20;5.70;;;24.80;1.00;;;;;;5048396;28;20526;-60
2022/08/04 01:22:32;;;;;;;6.63;5.43;;;24.70;1.00;;;;;;5047329;28;20451;-60
2022/08/04 01:24:59;;;;;;;6.60;6.00;;;;;;;;;;5046861;28;20446;-60
2022/08/04 01:27:53;;;;;;;7.23;6.00;;;24.90;1.00;;;;;;5047102;28;20442;-59
2022/08/04 01:30:19;;;;;;;6.57;5.87;;;;;;;;;;5047683;28;20524;-60
2022/08/04 01:32:52;;;;;;;6.17;5.67;;;24.80;1.00;;;;;;5048598;28;20474;-59
2022/08/04 01:36:00;;;;;;;6.50;6.00;;;24.80;1.00;;;;;;5048348;28;20524;-60
2022/08/04 01:38:40;;;;;;;6.50;5.90;;;24.80;1.00;;;;;;5004965;28;20464;-61
2022/08/04 01:41:19;;;;;;;6.20;5.60;;;24.60;1.00;;;;;;5051449;28;20499;-60
2022/08/04 01:43:45;;;;;;;6.47;5.87;;;24.70;1.00;;;;;;5048637;28;20461;-59
2022/08/04 01:46:32;;;;;;;6.87;6.00;;;24.70;1.00;;;;;;5047467;28;20461;-60
2022/08/04 01:48:59;;;;;;;6.10;5.50;;;24.70;1.00;;;;;;5046011;28;20453;-59
2022/08/04 01:51:38;;;;;;;7.10;5.60;;;24.60;1.00;;;;;;5049089;28;20446;-60
2022/08/04 01:54:06;;;;;;;6.03;5.43;;;24.60;1.00;;;;;;5045206;28;20655;-60
2022/08/04 01:56:31;;;;;;;6.50;5.90;;;24.60;1.00;;;;;;5046181;28;20545;-60
2022/08/04 01:58:58;;;;;;;6.33;5.73;;;24.60;1.00;;;;;;5048665;28;20545;-59
2022/08/04 02:01:25;;;;;;;6.30;5.77;;;24.50;1.00;;;;;;5045663;28;20649;-60
2022/08/04 02:03:51;;;;;;;6.40;5.90;;;24.50;1.00;;;;;;5049080;28;20588;-60
2022/08/04 02:06:53;;;;;;;7.10;5.50;;;24.50;1.00;;;;;;5051755;28;20525;-60
2022/08/04 02:09:22;;;;;;;6.47;5.87;;;24.40;1.00;;;;;;5048476;28;20638;-59
2022/08/04 02:12:14;;;;;;;5.87;5.37;;;24.50;1.00;;;;;;5050614;28;20748;-59
2022/08/04 02:14:55;;;;;;;6.80;6.20;;;24.40;1.00;;;;;;5039149;28;20892;-60
2022/08/04 02:17:41;;;;;;;6.50;5.87;;;24.40;1.00;;;;;;5052739;28;20517;-60
2022/08/04 02:20:14;;;;;;;6.30;5.80;;;24.40;1.00;;;;;;5051732;28;20438;-60
2022/08/04 02:23:03;;;;;;;7.03;6.33;;;24.50;1.00;;;;;;5050518;28;20479;-60
2022/08/04 02:25:35;;;;;;;7.43;6.70;;;24.50;1.00;;;;;;5051181;28;20507;-61
2022/08/04 02:28:25;;;;;;;6.67;6.00;;;24.40;1.00;;;;;;5051183;28;20849;-59
2022/08/04 02:30:51;;;;;;;6.00;5.50;;;;;;;;;;5051788;28;20442;-59
2022/08/04 02:33:22;;;;;;;6.53;5.90;;;24.30;1.00;;;;;;5049244;28;20473;-60
2022/08/04 02:35:54;;;;;;;6.80;6.20;;;24.20;1.00;;;;;;5051467;28;20486;-59
2022/08/04 02:38:55;;;;;;;7.10;6.37;;;24.10;1.00;;;;;;5053282;28;20442;-60
2022/08/04 02:41:23;;;;;;;7.10;6.50;;;24.10;1.00;;;;;;5048966;28;20453;-61
2022/08/04 02:43:50;;;;;;;11.30;6.87;;;24.10;1.00;;;;;;5050101;28;21035;-60
2022/08/04 02:46:36;;;;;;;6.10;5.60;;;24.10;1.00;;;;;;5052721;28;20555;-59
2022/08/04 02:49:05;;;;;;;7.20;6.50;;;24.10;1.00;;;;;;5050576;28;20446;-59
2022/08/04 02:51:50;;;;;;;7.07;6.47;;;24.10;1.00;;;;;;5049359;28;20554;-59
2022/08/04 02:54:18;;;;;;;7.53;6.10;;;24.00;1.00;;;;;;5051943;28;20474;-60
2022/08/04 02:56:45;;;;;;;7.67;6.53;;;23.90;1.00;;;;;;5052038;28;20453;-60
2022/08/04 02:59:12;;;;;;;6.10;5.50;;;24.00;1.00;;;;;;5050245;28;20452;-59
2022/08/04 03:01:39;;;;;;;9.73;8.00;;;23.90;1.00;;;;;;5050664;28;20801;-59
2022/08/04 03:04:16;;;;;;;7.47;6.63;;;23.90;1.00;;;;;;5051408;28;20951;-60
2022/08/04 03:07:20;;;;;;;7.00;6.33;;;23.80;1.00;;;;;;5051605;28;20508;-60
2022/08/04 03:10:20;;;;;;;6.77;6.27;;;23.90;1.00;;;;;;5051739;28;20945;-59
2022/08/04 03:13:13;;;;;;;6.63;6.03;;;23.90;1.00;;;;;;5050259;28;20481;-61
2022/08/04 03:16:28;;;;;;;7.47;6.77;;;23.90;1.00;;;;;;5049103;28;20476;-60
2022/08/04 03:19:20;;;;;;;6.70;6.20;;;23.80;1.00;;;;;;5051362;28;20800;-60
2022/08/04 03:22:04;;;;;;;7.07;6.13;;;23.80;1.00;;;;;;5050649;28;20746;-60
2022/08/04 03:24:48;;;;;;;6.97;6.37;;;23.80;1.00;;;;;;5049005;28;20544;-60
2022/08/04 03:27:47;;;;;;;6.57;5.97;;;23.80;1.00;;;;;;5051342;28;20443;-60
2022/08/04 03:30:40;;;;;;;6.30;5.70;;;23.70;1.00;;;;;;5051542;28;20537;-59
2022/08/04 03:33:24;;;;;;;5.60;5.10;;;23.70;1.00;;;;;;5046435;28;20458;-59
2022/08/04 03:36:08;;;;;;;6.70;5.97;;;23.70;1.00;;;;;;5048807;28;20474;-59
2022/08/04 03:38:48;;;;;;;7.90;6.67;;;23.70;1.00;;;;;;5049077;28;20451;-60
2022/08/04 03:41:39;;;;;;;7.37;6.30;;;23.80;1.00;;;;;;5050962;28;20516;-59
2022/08/04 03:44:34;;;;;;;7.87;6.40;;;23.80;1.00;;;;;;5047925;28;20477;-59
2022/08/04 03:47:46;;;;;;;7.03;6.33;;;23.80;1.00;;;;;;5049594;28;20486;-60
2022/08/04 03:50:20;;;;;;;7.50;6.57;;;23.70;1.00;;;;;;5049360;28;20453;-61
2022/08/04 03:53:09;;;;;;;6.40;5.90;;;23.80;1.00;;;;;;5048996;28;20465;-59
2022/08/04 03:55:38;;;;;;;6.33;5.73;;;23.80;1.00;;;;;;5049185;28;20955;-59
2022/08/04 03:58:37;;;;;;;9.30;6.13;;;23.80;1.00;;;;;;5049024;28;20455;-59
2022/08/04 04:01:50;;;;;;;6.43;5.83;;;23.90;1.00;;;;;;5049821;28;20538;-60
2022/08/04 04:04:50;;;;;;;6.27;5.67;;;24.00;1.00;;;;;;5048352;28;20524;-60
2022/08/04 04:07:48;;;;;;;6.63;6.03;;;23.90;1.00;;;;;;5050381;28;20503;-60
2022/08/04 04:10:44;;;;;;;6.57;5.87;;;24.10;1.00;;;;;;5048675;28;20453;-58
2022/08/04 04:13:31;;;;;;;9.57;6.57;;;24.10;1.00;;;;;;5050085;28;20616;-59
2022/08/04 04:16:34;;;;;;;6.37;5.40;;;24.20;1.00;;;;;;5049963;28;20438;-58
2022/08/04 04:19:33;;;;;;;7.50;5.97;;;24.20;1.00;;;;;;5049246;28;20438;-59
2022/08/04 04:22:05;;;;;;;6.30;5.27;;;24.30;1.00;;;;;;5051004;28;20445;-59
2022/08/04 04:24:56;;;;;;;8.50;5.47;;;24.30;1.00;;;;;;5049213;28;20442;-58
2022/08/04 04:27:45;;;;;;;6.87;6.17;;;24.40;1.00;;;;;;5049777;28;20446;-59
2022/08/04 04:30:38;;;;;;;6.10;4.87;;;24.40;1.00;;;;;;5049363;28;20450;-60
2022/08/04 04:33:56;;;;;;;6.60;5.13;;;24.50;1.00;;;;;;5050351;28;20778;-60
2022/08/04 04:36:46;;;;;;;7.27;5.60;;;24.60;1.00;;;;;;5025980;28;20479;-60
2022/08/04 04:39:13;;;;;;;8.70;5.47;;;;;;;;;;5048791;28;20446;-58
2022/08/04 04:41:44;;;;;;;5.27;4.80;;;;;;;;;;5049963;28;20438;-59
2022/08/04 04:44:50;;;;;;;6.60;5.33;;;24.80;1.00;;;;;;5050053;28;20421;-59
2022/08/04 04:47:50;;;;;;;6.57;5.80;;;25.00;1.00;;;;;;5048565;28;20470;-59
2022/08/04 04:50:34;;;;;;;6.40;5.13;;;24.90;1.00;;;;;;5046258;28;20489;-59
2022/08/04 04:53:37;;;;;;;7.20;5.20;;;25.30;1.00;;;;;;5048917;28;20557;-57
2022/08/04 04:56:18;;;;;;;6.30;5.70;;;25.30;1.00;;;;;;5047538;28;20442;-58
2022/08/04 04:58:43;;;;;;;6.10;5.47;;;25.30;1.00;;;;;;5047771;28;20446;-56
2022/08/04 05:01:09;;;;;;;5.60;5.03;;;25.40;1.00;;;;;;5049728;28;20462;-58
2022/08/04 05:03:53;;;;;;;6.50;5.70;;;25.50;1.00;;;;;;5048824;28;20201;-59
2022/08/04 05:06:40;;;;;;;5.50;4.97;;;25.50;1.00;;;;;;5048208;28;20605;-58
2022/08/04 05:09:24;;;;;;;6.30;5.13;;;25.60;1.00;;;;;;5049637;28;20462;-58
2022/08/04 05:12:04;;;;;;;8.03;5.10;;;25.60;1.00;;;;;;5048224;28;20480;-57
2022/08/04 05:14:38;;;;;;;7.53;5.57;;;25.80;1.00;;;;;;5049308;28;20982;-57
2022/08/04 05:17:41;;;;;;;5.20;4.80;;;25.90;1.00;;;;;;5049978;28;20438;-58
2022/08/04 05:20:12;;;;;;;5.50;5.10;;;26.00;1.00;;;;;;5026034;28;20458;-58
2022/08/04 05:23:07;;;;;;;8.60;5.33;;;26.10;1.00;;;;;;5045619;28;20533;-58
2022/08/04 05:25:48;;;;;;;8.77;5.23;;;26.10;1.00;;;;;;5047551;28;20931;-58
2022/08/04 05:28:24;;;;;;;6.93;5.20;;;26.10;1.00;;;;;;5048254;28;20442;-58
2022/08/04 05:30:58;;;;;;;8.47;5.50;;;26.20;1.00;;;;;;5048218;28;20482;-59
2022/08/04 05:33:40;;;;;;;6.27;5.20;;;26.30;1.00;;;;;;5049166;28;20908;-59
2022/08/04 05:36:27;;;;;;;7.13;4.90;;;26.40;1.00;;;;;;5049073;28;20470;-57
2022/08/04 05:38:58;;;;;;;5.37;4.37;;;26.50;1.00;;;;;;5048664;28;20525;-58
2022/08/04 05:41:32;;;;;;;5.10;4.70;;;26.60;1.00;;;;;;5048408;28;20450;-58
2022/08/04 05:43:59;;;;;;;5.17;4.70;;;26.80;1.00;;;;;;5049256;28;20461;-58
2022/08/04 05:46:27;;;;;;;6.17;4.80;;;26.60;1.00;;;;;;5048864;28;20460;-58
2022/08/04 05:48:54;;;;;;;7.57;5.10;;;26.70;1.00;;;;;;5048225;28;20816;-58
2022/08/04 05:51:24;;;;;;;6.30;4.47;;;26.80;1.00;;;;;;5053117;28;20471;-58
2022/08/04 05:53:50;;;;;;;5.17;4.13;;;27.00;1.00;;;;;;5062030;28;20565;-57
2022/08/04 05:56:32;;;;;;;7.43;4.83;;;27.00;1.00;;;;;;5047853;28;20526;-58
2022/08/04 05:58:59;;;;;;;5.37;4.80;;;27.10;1.00;;;;;;5048621;28;20453;-57
2022/08/04 06:01:41;;;;;;;5.03;4.53;;;27.10;1.00;;;;;;5047809;28;20457;-59
2022/08/04 06:04:08;;;;;;;5.00;4.60;;;27.20;1.00;;;;;;5047269;28;20524;-60
2022/08/04 06:06:34;;;;;;;5.03;4.40;;;27.30;1.00;;;;;;5047737;28;20622;-59
2022/08/04 06:08:59;;;;;;;5.43;4.97;;;27.40;1.00;;;;;;5046770;28;20453;-59
2022/08/04 06:11:28;;;;;;;6.00;4.60;;;27.50;1.00;;;;;;5049168;28;20454;-59
2022/08/04 06:13:56;;;;;;;4.83;4.40;;;27.70;1.00;;;;;;5058075;28;20224;-58
2022/08/04 06:16:25;;;;;;;5.30;3.93;;;27.80;1.00;;;;;;5049277;28;20454;-58
2022/08/04 06:18:53;;;;;;;6.47;5.10;;;27.80;1.00;;;;;;5048785;28;20442;-58
2022/08/04 06:21:25;;;;;;;4.80;4.30;;;27.80;1.00;;;;;;5056801;28;20492;-57
2022/08/04 06:23:53;;;;;;;5.00;4.13;;;28.00;1.00;;;;;;5062551;28;20520;-59
2022/08/04 06:26:33;;;;;;;5.20;4.47;;;28.10;1.00;;;;;;5048596;28;20450;-59
2022/08/04 06:29:00;;;;;;;5.30;4.80;;;28.30;1.00;;;;;;5048904;28;20500;-58
2022/08/04 06:31:45;;;;;;;5.67;4.97;;;28.50;1.00;;;;;;5048042;28;20902;-59
2022/08/04 06:34:14;;;;;;;5.70;4.37;;;28.60;1.00;;;;;;5048592;28;20515;-60
2022/08/04 06:36:41;;;;;;;5.30;4.70;;;28.50;1.00;;;;;;5048730;28;20971;-59
2022/08/04 06:39:08;;;;;;;5.10;4.67;;;28.60;1.00;;;;;;5048403;28;21125;-58
2022/08/04 06:41:34;;;;;;;8.03;4.23;;;28.60;1.00;;;;;;5049262;28;20443;-59
2022/08/04 06:44:03;;;;;;;4.80;4.50;;;28.70;1.00;;;;;;5048393;28;20458;-59
2022/08/04 06:46:31;;;;;;;4.90;4.50;;;28.90;1.00;;;;;;5048716;28;20447;-58
2022/08/04 06:48:58;;;;;;;5.27;4.70;;;;;;;;;;5047696;28;21002;-59
2022/08/04 06:51:27;;;;;;;6.53;4.20;;;29.20;1.00;;;;;;5048738;28;20450;-60
2022/08/04 06:53:52;;;;;;;6.73;4.27;;;29.40;1.00;;;;;;5051411;28;20551;-60
2022/08/04 06:56:23;;;;;;;4.57;4.13;;;29.40;1.00;;;;;;5051257;28;20434;-59
2022/08/04 06:58:52;;;;;;;5.00;4.60;;;29.40;1.00;;;;;;5050766;28;20203;-59
2022/08/04 07:01:28;;;;;;;4.53;4.13;;;29.30;1.00;;;;;;5052761;28;20436;-59
2022/08/04 07:03:54;;;;;;;5.20;4.27;;;29.40;1.00;;;;;;5051967;28;20480;-60
2022/08/04 07:06:28;;;;;;;4.63;4.20;;;29.60;1.00;;;;;;5051225;28;20446;-63
2022/08/04 07:08:55;;;;;;;4.60;4.20;;;29.70;1.00;;;;;;5052023;28;20524;-59
2022/08/04 07:11:24;;;;;;;5.07;4.67;;;29.90;1.00;;;;;;5052670;28;20430;-59
2022/08/04 07:13:52;;;;;;;4.90;4.50;;;30.10;1.00;;;;;;5051523;28;20473;-58
2022/08/04 07:16:28;;;;;;;5.20;4.80;;;30.10;1.00;;;;;;5052146;28;20460;-60
2022/08/04 07:18:54;;;;;;;9.60;4.23;;;30.20;1.00;;;;;;5051692;28;20454;-57
2022/08/04 07:21:23;;;;;;;5.03;4.20;;;30.10;1.00;;;;;;5052736;28;20453;-59
2022/08/04 07:23:50;;;;;;;6.40;4.93;;;30.40;1.00;;;;;;5051414;28;20202;-59
2022/08/04 07:26:17;;;;;;;6.23;4.23;;;30.60;1.00;;;;;;5052103;28;20447;-59
2022/08/04 07:28:43;;;;;;;8.27;4.30;;;30.80;1.00;;;;;;5052114;28;20442;-58
2022/08/04 07:31:22;;;;;;;6.67;5.27;;;30.80;1.00;;;;;;5051913;28;20500;-59
2022/08/04 07:33:48;;;;;;;8.73;4.73;;;30.90;1.00;;;;;;5051968;28;20975;-60
2022/08/04 07:36:23;;;;;;;10.10;4.87;;;30.80;1.00;;;;;;5051624;28;20462;-59
2022/08/04 07:38:48;;;;;;;5.43;4.80;;;30.70;1.00;;;;;;5051906;28;20524;-59
2022/08/04 07:41:30;;;;;;;5.80;4.73;;;31.10;1.00;;;;;;5051905;28;20530;-60
2022/08/04 07:43:56;;;;;;;7.20;4.90;;;;;;;;;;5052170;28;20192;-59
2022/08/04 07:46:25;;;;;;;4.90;4.50;;;31.50;1.00;;;;;;5050102;28;20453;-60
2022/08/04 07:48:51;;;;;;;5.40;3.80;;;31.80;1.00;;;;;;5060788;28;20450;-58
2022/08/04 07:51:24;;;;;;;6.93;4.87;;;31.90;1.00;;;;;;5051767;28;20477;-58
2022/08/04 07:53:50;;;;;;;7.87;4.40;;;32.20;1.00;;;;;;5051550;28;20470;-59
2022/08/04 07:56:36;;;;;;;4.20;3.90;;;32.20;1.00;;;;;;5051172;28;20430;-59
2022/08/04 07:59:03;;;;;;;8.03;4.90;;;32.30;1.00;;;;;;5051031;28;20196;-59
2022/08/04 08:01:29;;;;;;;4.67;3.90;;;32.30;1.00;;;;;;5051284;28;20496;-60
2022/08/04 08:03:56;;;;;;;4.50;4.10;;;32.30;1.00;;;;;;5059965;28;20721;-58
2022/08/04 08:06:29;;;;;;;5.10;4.53;;;32.40;1.00;;;;;;5071416;28;20491;-59
2022/08/04 08:08:55;;;;;;;5.53;4.80;;;32.50;1.00;;;;;;5071420;28;20918;-59
2022/08/04 08:11:28;;;;;;;7.43;4.83;;;32.60;1.00;;;;;;5071514;28;20541;-60
2022/08/04 08:13:54;;;;;;;4.80;4.17;;;32.60;1.00;;;;;;5064648;28;20490;-59
2022/08/04 08:16:22;;;;;;;4.60;4.20;;;32.60;1.00;;;;;;5050198;28;20445;-59
2022/08/04 08:18:48;;;;;;;4.47;4.17;;;32.50;1.00;;;;;;5056448;28;20486;-58
2022/08/04 08:21:26;;;;;;;4.30;4.00;;;34.60;1.00;;;;;;5051049;28;20465;-58
2022/08/04 08:23:52;;;;;;;4.73;4.33;;;33.10;1.00;;;;;;5050566;28;20262;-59
2022/08/04 08:26:27;;;;;;;5.60;4.80;;;33.10;1.00;;;;;;5056220;28;20444;-57
2022/08/04 08:28:53;;;;;;;4.70;4.30;;;33.30;1.00;;;;;;5050374;28;20442;-58
2022/08/04 08:31:18;;;;;;;3.97;3.67;;;33.30;1.00;;;;;;5051010;28;20441;-58
2022/08/04 08:33:46;;;;;;;6.30;3.87;;;33.50;1.00;;;;;;5050826;28;20956;-58
2022/08/04 08:36:34;;;;;;;4.30;3.90;;;33.60;1.00;;;;;;5047098;28;20254;-58
2022/08/04 08:39:09;;;;;;;7.30;3.53;;;33.80;1.00;;;;;;5052206;28;20480;-59
2022/08/04 08:42:01;;;;;;;4.10;3.70;;;34.00;1.00;;;;;;5059937;28;20421;-58
2022/08/04 08:44:59;;;;;;;5.27;3.80;;;34.30;1.00;;;;;;5050552;28;20425;-59
2022/08/04 08:48:09;;;;;;;4.57;4.17;;;34.60;1.00;;;;;;5049038;28;20454;-59
2022/08/04 08:50:41;;;;;;;3.80;3.50;;;34.60;1.00;;;;;;5041328;28;20538;-59
2022/08/04 08:53:09;;;;;;;5.70;3.70;;;34.70;1.00;;;;;;5054110;28;20822;-59
2022/08/04 08:55:59;;;;;;;6.23;2.90;;;35.00;1.00;;;;;;5070606;28;20441;-58
2022/08/04 08:58:40;;;;;;;4.60;4.00;;;35.00;1.00;;;;;;5051022;28;20424;-60
2022/08/04 09:01:17;;;;;;;6.50;3.60;;;35.00;1.00;;;;;;5048685;28;20537;-59
2022/08/04 09:04:05;;;;;;;3.20;2.90;;;35.10;1.00;;;;;;5049555;28;20448;-58
2022/08/04 09:06:44;;;;;;;4.00;3.70;;;35.00;1.00;;;;;;5050596;28;20443;-58
2022/08/04 09:09:54;;;;;;;5.80;3.37;;;35.10;1.00;;;;;;5050337;28;20529;-59
2022/08/04 09:12:43;;;;;;;3.47;3.17;;;35.40;1.00;;;;;;5027247;28;20417;-59
2022/08/04 09:15:12;;;;;;;6.13;2.67;;;35.50;1.00;;;;;;5026672;28;20474;-67
2022/08/04 09:17:54;;;;;;;3.00;2.70;;;35.40;1.00;;;;;;5043140;28;20473;-57
2022/08/04 09:20:41;;;;;;;4.33;2.50;;;35.90;1.00;;;;;;5049867;28;20445;-59
2022/08/04 09:23:17;;;;;;;4.37;3.13;;;36.00;1.00;;;;;;5048672;28;20537;-58
2022/08/04 09:25:57;;;;;;;3.30;3.00;;;36.10;1.00;;;;;;5056455;28;20450;-59
2022/08/04 09:28:25;;;;;;;5.17;3.00;;;36.30;1.00;;;;;;5047467;28;20442;-61
2022/08/04 09:31:15;;;;;;;3.63;3.13;;;36.80;1.00;;;;;;5049341;28;20922;-61
2022/08/04 09:33:52;;;;;;;3.07;2.77;;;36.70;1.00;;;;;;5046169;28;20975;-58
2022/08/04 09:36:40;;;;;;;3.90;2.90;;;36.70;1.00;;;;;;5049465;28;20971;-60
2022/08/04 09:39:25;;;;;;;3.03;2.50;;;36.90;1.00;;;;;;5046584;28;20438;-59
2022/08/04 09:41:59;;;;;;;3.50;2.63;;;36.90;1.00;;;;;;5048464;28;20930;-60
2022/08/04 09:44:51;;;;;;;2.97;2.77;;;37.10;1.00;;;;;;5049100;28;20435;-59
2022/08/04 09:47:38;;;;;;;3.10;2.80;;;36.60;1.00;;;;;;5049752;28;20420;-58
2022/08/04 09:50:22;;;;;;;2.77;2.30;;;36.10;1.00;;;;;;5049164;28;20480;-58
2022/08/04 09:53:12;;;;;;;3.13;2.93;;;36.10;1.00;;;;;;5048424;28;20544;-61
2022/08/04 09:55:44;;;;;;;3.03;2.83;;;36.70;1.00;;;;;;5056417;28;20456;-59
2022/08/04 09:58:25;;;;;;;4.80;3.30;;;36.80;1.00;;;;;;5065085;28;20473;-59
2022/08/04 10:01:05;;;;;;;5.97;3.03;;;36.90;1.00;;;;;;5055181;28;20478;-59
2022/08/04 10:03:35;;;;;;;3.57;3.00;;;37.30;1.00;;;;;;5048830;28;20450;-58
2022/08/04 10:06:36;;;;;;;4.57;4.27;;;37.50;1.00;;;;;;5056286;28;20442;-59
2022/08/04 10:09:08;;;;;;;4.53;2.77;;;;;;;;;;5026978;28;20907;-61
2022/08/04 10:11:53;;;;;;;2.30;2.07;;;37.50;1.00;;;;;;5060905;28;20446;-59
2022/08/04 10:14:43;;;;;;;2.73;2.53;;;37.50;1.00;;;;;;5049365;28;20493;-60
2022/08/04 10:17:33;;;;;;;3.43;2.80;;;37.40;1.00;;;;;;5049574;28;20409;-59
2022/08/04 10:20:23;;;;;;;3.10;2.87;;;37.40;1.00;;;;;;5048489;28;20457;-60
2022/08/04 10:23:11;;;;;;;4.00;2.63;;;37.70;1.00;;;;;;5049577;28;20434;-58
2022/08/04 10:26:25;;;;;;;4.33;3.00;;;37.60;1.00;;;;;;5049469;28;20480;-59
2022/08/04 10:28:56;;;;;;;4.23;2.93;;;37.30;1.00;;;;;;5053665;28;20517;-59
2022/08/04 10:31:43;;;;;;;4.30;3.23;;;37.00;1.00;;;;;;5053390;28;20430;-59
2022/08/04 10:34:19;;;;;;;3.70;2.73;;;37.10;1.00;;;;;;5052934;28;20466;-60
2022/08/04 10:37:05;;;;;;;2.90;2.70;;;37.00;1.00;;;;;;5052619;28;20441;-59
2022/08/04 10:39:38;;;;;;;4.83;3.03;;;36.90;1.00;;;;;;5053252;28;20429;-57
2022/08/04 10:42:26;;;;;;;3.80;2.77;;;37.20;1.00;;;;;;5053386;28;20513;-58
2022/08/04 10:44:57;;;;;;;4.60;3.30;;;37.30;1.00;;;;;;5052308;28;20511;-59
2022/08/04 10:47:31;;;;;;;5.30;2.90;;;37.30;1.00;;;;;;5059583;28;20429;-60
2022/08/04 10:50:00;;;;;;;3.40;2.87;;;37.40;1.00;;;;;;5053419;28;20474;-59
2022/08/04 10:52:43;;;;;;;4.43;2.50;;;37.30;1.00;;;;;;5052323;28;20448;-60
2022/08/04 10:55:18;;;;;;;6.20;3.10;;;38.00;1.00;;;;;;5053140;28;20571;-58
2022/08/04 10:57:50;;;;;;;2.73;2.57;;;38.00;1.00;;;;;;5053022;28;20436;-60
2022/08/04 11:00:25;;;;;;;4.90;2.60;;;38.00;1.00;;;;;;5052690;28;20797;-59
2022/08/04 11:03:02;;;;;;;4.00;3.20;;;38.30;1.00;;;;;;5049975;28;20484;-58
2022/08/04 11:05:49;;;;;;;3.00;2.80;;;38.40;1.00;;;;;;5049985;28;20784;-59
2022/08/04 11:08:20;;;;;;;3.63;2.90;;;38.00;1.00;;;;;;5052607;28;20521;-60
2022/08/04 11:10:54;;;;;;;5.23;3.10;;;37.80;1.00;;;;;;5053126;28;21067;-58
2022/08/04 11:13:23;;;;;;;2.97;2.77;;;37.70;1.00;;;;;;5052394;28;20458;-58
2022/08/04 11:15:56;;;;;;;3.50;3.07;;;37.70;1.00;;;;;;5051726;28;20482;-58
2022/08/04 11:18:39;;;;;;;3.50;3.20;;;37.90;1.00;;;;;;5064827;28;21272;-58
2022/08/04 11:21:24;;;;;;;3.23;3.03;;;38.00;1.00;;;;;;5052320;28;20443;-58
2022/08/04 11:24:07;;;;;;;6.87;3.20;;;37.60;1.00;;;;;;5050914;28;20486;-60
2022/08/04 11:27:27;;;;;;;2.90;2.70;;;37.30;1.00;;;;;;5052009;28;20443;-59
2022/08/04 11:30:03;;;;;;;3.17;2.87;;;37.30;1.00;;;;;;5021831;28;20517;-58
2022/08/04 11:32:46;;;;;;;3.00;2.57;;;37.00;1.00;;;;;;5048388;28;20454;-59
2022/08/04 11:35:24;;;;;;;3.27;3.07;;;37.00;1.00;;;;;;5051113;28;21486;-58
2022/08/04 11:38:01;;;;;;;3.20;3.00;;;37.00;1.00;;;;;;5049699;28;20476;-58
2022/08/04 11:40:41;;;;;;;4.03;2.80;;;36.90;1.00;;;;;;5051506;28;20864;-59
2022/08/04 11:43:20;;;;;;;3.53;3.30;;;36.90;1.00;;;;;;5051670;28;20553;-61
2022/08/04 11:46:00;;;;;;;4.20;2.90;;;36.70;1.00;;;;;;5052171;28;20439;-63
2022/08/04 11:48:35;;;;;;;2.93;2.60;;;36.70;1.00;;;;;;5051991;28;20435;-61
2022/08/04 11:51:04;;;;;;;2.73;2.53;;;36.60;1.00;;;;;;5051943;28;20433;-63
2022/08/04 11:53:32;;;;;;;3.40;3.10;;;36.60;1.00;;;;;;5051968;28;20466;-62
2022/08/04 11:56:01;;;;;;;3.00;2.80;;;36.60;1.00;;;;;;5051153;28;20445;-61
2022/08/04 11:58:27;;;;;;;3.53;3.23;;;36.60;1.00;;;;;;5051697;28;20442;-62
2022/08/04 12:00:57;;;;;;;8.07;2.60;;;36.60;1.00;;;;;;5050618;28;20438;-63
2022/08/04 12:04:04;;;;;;;3.60;3.20;;;36.70;1.00;;;;;;5051782;28;20450;-62
2022/08/04 12:06:32;;;;;;;5.43;3.07;;;37.00;1.00;;;;;;5062838;28;20449;-63
2022/08/04 12:09:10;;;;;;;3.07;2.70;;;37.30;1.00;;;;;;5071543;28;21009;-67
2022/08/04 12:12:12;;;;;;;4.77;2.77;;;37.40;1.00;;;;;;5071856;28;20464;-61
2022/08/04 12:14:43;;;;;;;3.93;2.47;;;37.40;1.00;;;;;;5061855;28;20564;-62
2022/08/04 12:17:11;;;;;;;3.40;2.93;;;37.40;1.00;;;;;;5071756;28;20434;-62
2022/08/04 12:20:08;;;;;;;5.40;2.83;;;37.30;1.00;;;;;;5063496;28;20447;-63
2022/08/04 12:22:39;;;;;;;3.37;3.03;;;37.30;1.00;;;;;;5050587;28;20473;-62
2022/08/04 12:25:13;;;;;;;4.30;3.23;;;37.20;1.00;;;;;;5051478;28;20439;-63
2022/08/04 12:27:44;;;;;;;3.63;2.83;;;37.30;1.00;;;;;;5051749;28;20513;-63
2022/08/04 12:30:11;;;;;;;3.33;3.13;;;37.20;1.00;;;;;;5051345;28;20438;-62
2022/08/04 12:32:54;;;;;;;3.37;2.77;;;37.20;1.00;;;;;;5051093;28;20770;-63
2022/08/04 12:35:29;;;;;;;3.80;3.50;;;37.30;1.00;;;;;;5051326;28;20515;-64
2022/08/04 12:38:26;;;;;;;3.37;3.10;;;37.10;1.00;;;;;;5063071;28;20408;-64
2022/08/04 12:40:55;;;;;;;3.17;2.87;;;36.90;1.00;;;;;;5042606;28;20446;-63
2022/08/04 12:43:41;;;;;;;3.20;3.00;;;36.90;1.00;;;;;;5053060;28;20446;-63
2022/08/04 12:46:28;;;;;;;2.80;2.57;;;37.00;1.00;;;;;;5050176;28;20457;-64
2022/08/04 12:49:01;;;;;;;3.37;3.07;;;37.10;1.00;;;;;;5059548;28;20438;-63
2022/08/04 12:52:05;;;;;;;4.17;3.40;;;37.00;1.00;;;;;;5071259;28;20575;-63
2022/08/04 12:54:35;;;;;;;4.97;3.17;;;37.20;1.00;;;;;;5048161;28;20473;-64
2022/08/04 12:57:04;;;;;;;3.50;3.20;;;37.40;1.00;;;;;;5051351;28;21171;-63
2022/08/04 12:59:37;;;;;;;4.30;3.30;;;37.30;1.00;;;;;;5060348;28;20438;-64
2022/08/04 13:02:32;;;;;;;4.10;3.10;;;37.20;1.00;;;;;;5072259;28;20437;-63
2022/08/04 13:05:01;;;;;;;4.87;2.90;;;37.80;1.00;;;;;;5047272;28;20896;-66
2022/08/04 13:07:34;;;;;;;4.00;3.20;;;37.70;1.00;;;;;;5055669;28;20492;-62
2022/08/04 13:10:05;;;;;;;3.73;3.30;;;37.90;1.00;;;;;;5070914;28;20814;-62
2022/08/04 13:12:33;;;;;;;3.83;3.23;;;37.90;1.00;;;;;;5070629;28;20437;-63
2022/08/04 13:15:21;;;;;;;6.70;3.30;;;37.90;1.00;;;;;;5070404;28;20448;-63
2022/08/04 13:17:49;;;;;;;4.60;3.67;;;37.90;1.00;;;;;;5070413;28;20441;-62
2022/08/04 13:20:22;;;;;;;3.03;2.63;;;38.00;1.00;;;;;;5054878;28;20774;-63
2022/08/04 13:22:49;;;;;;;2.97;2.67;;;38.10;1.00;;;;;;5049516;28;20496;-63
2022/08/04 13:25:16;;;;;;;5.13;3.00;;;38.10;1.00;;;;;;5049916;28;20436;-63
2022/08/04 13:27:46;;;;;;;3.80;3.37;;;38.10;1.00;;;;;;5050377;28;20520;-63
2022/08/04 13:30:16;;;;;;;3.37;3.07;;;38.00;1.00;;;;;;5050484;28;20434;-63
2022/08/04 13:32:42;;;;;;;4.70;3.03;;;38.00;1.00;;;;;;5053932;28;20495;-62
2022/08/04 13:35:09;;;;;;;3.60;3.30;;;37.90;1.00;;;;;;5069512;28;20548;-62
2022/08/04 13:37:38;;;;;;;4.00;3.20;;;37.60;1.00;;;;;;5069978;28;20521;-62
2022/08/04 13:40:07;;;;;;;4.63;3.23;;;37.60;1.00;;;;;;5069932;28;20431;-62
2022/08/04 13:42:36;;;;;;;4.53;3.10;;;37.70;1.00;;;;;;5064139;28;20439;-62
2022/08/04 13:45:05;;;;;;;4.10;3.30;;;37.80;1.00;;;;;;5049703;28;20443;-63
2022/08/04 13:47:34;;;;;;;4.33;3.50;;;38.00;1.00;;;;;;5049825;28;20427;-62
2022/08/04 13:50:08;;;;;;;3.90;3.60;;;38.00;1.00;;;;;;5049836;28;20498;-61
2022/08/04 13:55:30;;;;;;;3.50;3.20;;;37.80;1.00;;;;;;5049513;28;20449;-64
2022/08/04 13:58:12;;;;;;;6.30;3.23;;;37.30;1.00;;;;;;5049132;28;20831;-63
2022/08/04 14:00:48;;;;;;;5.00;3.80;;;37.30;1.00;;;;;;5051245;28;20437;-63